Time;durP1;ratioP1;P1;durP2;ratioP2;P2;SDS_P1;SDS_P2;PMS_P1;PMS_P2;Temp;Humidity;BMP_temperature;BMP_pressure;BME280_temperature;BME280_humidity;BME280_pressure;Samples;Min_cycle;Max_cycle;Signal;HPM_P1;HPM_P2
2023/03/20 00:02:24;;;;;;;6.47;5.20;;;;;;;10.92;100.00;99219.59;4968733;28;20199;-80
2023/03/20 00:04:53;;;;;;;10.17;7.33;;;;;;;10.95;100.00;99232.63;4972304;28;20200;-81
2023/03/20 00:07:22;;;;;;;8.73;6.23;;;;;;;10.90;100.00;99232.06;4967454;28;20206;-81
2023/03/20 00:09:50;;;;;;;8.07;5.67;;;;;;;10.94;100.00;99232.72;4966669;28;20235;-80
2023/03/20 00:12:25;;;;;;;8.07;5.70;;;;;;;10.90;100.00;99234.69;4966790;28;20262;-80
2023/03/20 00:14:54;;;;;;;9.10;6.57;;;;;;;10.87;100.00;99233.09;4992363;28;20199;-80
2023/03/20 00:17:22;;;;;;;8.17;5.87;;;;;;;10.84;100.00;99229.81;5033166;28;20192;-81
2023/03/20 00:19:51;;;;;;;6.37;4.93;;;;;;;10.94;100.00;99238.03;4966295;28;20192;-81
2023/03/20 00:22:21;;;;;;;5.87;5.03;;;;;;;10.79;100.00;99234.53;4963003;28;20203;-81
2023/03/20 00:24:50;;;;;;;5.97;4.60;;;;;;;10.76;100.00;99240.03;4968697;28;20291;-81
2023/03/20 00:27:21;;;;;;;5.67;4.80;;;;;;;10.80;100.00;99245.03;4965908;28;20192;-81
2023/03/20 00:29:51;;;;;;;6.20;4.40;;;;;;;10.84;100.00;99246.56;4966868;28;20200;-81
2023/03/20 00:32:19;;;;;;;5.33;4.07;;;;;;;10.73;100.00;99249.03;4961111;28;20235;-81
2023/03/20 00:34:47;;;;;;;5.80;3.70;;;;;;;10.59;100.00;99249.03;4967232;28;20251;-81
2023/03/20 00:37:16;;;;;;;6.10;4.80;;;;;;;10.46;100.00;99248.97;4983164;28;20414;-81
2023/03/20 00:39:45;;;;;;;4.90;4.40;;;;;;;10.46;100.00;99251.63;5068359;28;20242;-81
2023/03/20 00:42:21;;;;;;;6.67;4.90;;;;;;;10.51;100.00;99244.22;5067974;28;20200;-81
2023/03/20 00:44:54;;;;;;;6.30;4.67;;;;;;;10.63;100.00;99253.22;5070044;28;20203;-81
2023/03/20 00:47:25;;;;;;;5.93;4.33;;;;;;;10.72;100.00;99246.50;5061660;28;20207;-81
2023/03/20 00:49:56;;;;;;;6.77;4.70;;;;;;;10.58;100.00;99258.78;5067433;28;20212;-81
2023/03/20 00:52:25;;;;;;;5.03;4.10;;;;;;;10.56;100.00;99259.84;5032096;28;20279;-81
2023/03/20 00:54:53;;;;;;;4.77;3.90;;;;;;;10.64;100.00;99259.38;5065607;28;20204;-81
2023/03/20 00:57:30;;;;;;;5.57;4.23;;;;;;;10.57;100.00;99261.53;5067929;28;20208;-81
2023/03/20 01:00:05;;;;;;;6.17;4.60;;;;;;;10.64;100.00;99267.31;5062604;28;20196;-80
2023/03/20 01:02:34;;;;;;;7.00;4.60;;;;;;;10.65;100.00;99263.72;5004705;28;20194;-81
2023/03/20 01:05:04;;;;;;;4.30;3.90;;;;;;;10.59;100.00;99262.28;5003822;28;20206;-81
2023/03/20 01:07:35;;;;;;;6.27;4.23;;;;;;;10.54;100.00;99262.59;5007122;28;20668;-81
2023/03/20 01:10:04;;;;;;;5.53;4.07;;;;;;;10.52;100.00;99267.13;5007512;28;20206;-81
2023/03/20 01:12:33;;;;;;;5.23;3.93;;;;;;;10.49;100.00;99261.16;5012267;28;20214;-81
2023/03/20 01:15:03;;;;;;;6.43;4.17;;;;;;;10.53;100.00;99258.25;5011162;28;20198;-80
2023/03/20 01:17:34;;;;;;;5.27;4.07;;;;;;;10.51;100.00;99260.09;5004333;28;20190;-81
2023/03/20 01:20:03;;;;;;;4.83;4.33;;;;;;;10.48;100.00;99267.41;5024080;28;20193;-81
2023/03/20 01:22:31;;;;;;;5.60;3.73;;;;;;;10.51;100.00;99265.41;5030882;28;20204;-80
2023/03/20 01:25:01;;;;;;;6.13;4.17;;;;;;;10.46;100.00;99258.72;5070284;28;20258;-80
2023/03/20 01:27:30;;;;;;;7.73;4.57;;;;;;;10.41;100.00;99258.13;5069495;28;20188;-81
2023/03/20 01:29:59;;;;;;;5.63;4.07;;;;;;;10.43;100.00;99264.22;5063227;28;20200;-80
2023/03/20 01:32:30;;;;;;;8.20;5.07;;;;;;;10.42;100.00;99262.47;5068505;28;20229;-80
2023/03/20 01:35:00;;;;;;;6.57;4.87;;;;;;;10.46;100.00;99262.22;5066688;28;20204;-80
2023/03/20 01:37:28;;;;;;;6.60;5.00;;;;;;;10.40;100.00;99265.22;5069181;28;20643;-80
2023/03/20 01:39:57;;;;;;;6.97;5.33;;;;;;;10.42;100.00;99267.78;5068557;28;20188;-81
2023/03/20 01:42:26;;;;;;;6.10;4.33;;;;;;;10.37;100.00;99267.22;5070410;28;20284;-81
2023/03/20 01:44:54;;;;;;;6.33;4.30;;;;;;;10.18;100.00;99264.81;5066523;28;20192;-81
2023/03/20 01:47:26;;;;;;;5.90;4.20;;;;;;;10.13;100.00;99259.78;5067119;28;20197;-81
2023/03/20 01:50:25;;;;;;;6.27;4.17;;;;;;;10.10;100.00;99267.06;5067649;28;20185;-81
2023/03/20 01:53:08;;;;;;;6.37;5.10;;;;;;;10.19;100.00;99267.34;5041198;28;20216;-81
2023/03/20 01:55:38;;;;;;;7.40;4.37;;;;;;;10.13;100.00;99269.50;5069062;28;20196;-81
2023/03/20 01:58:11;;;;;;;4.97;4.47;;;;;;;10.15;100.00;99268.50;5068253;28;20199;-81
2023/03/20 02:00:39;;;;;;;5.07;4.40;;;;;;;10.14;100.00;99265.97;5012414;28;20276;-81
2023/03/20 02:03:09;;;;;;;6.87;4.50;;;;;;;10.00;100.00;99267.63;5008457;28;20191;-81
2023/03/20 02:05:40;;;;;;;7.30;5.43;;;;;;;9.95;100.00;99271.50;5010151;28;20206;-81
2023/03/20 02:08:17;;;;;;;6.30;5.27;;;;;;;9.94;100.00;99280.34;5007224;28;20217;-81
2023/03/20 02:10:47;;;;;;;6.90;5.00;;;;;;;10.00;100.00;99278.19;5012505;28;20245;-80
2023/03/20 02:13:18;;;;;;;5.23;4.70;;;;;;;9.90;100.00;99282.34;5009869;28;20293;-81
2023/03/20 02:16:02;;;;;;;5.30;4.20;;;;;;;9.87;100.00;99279.03;4992044;28;20267;-80
2023/03/20 02:18:31;;;;;;;6.77;5.13;;;;;;;9.82;100.00;99289.03;4991394;28;20206;-81
2023/03/20 02:21:37;;;;;;;8.00;4.60;;;;;;;9.85;100.00;99281.78;4945895;28;20205;-81
2023/03/20 02:24:34;;;;;;;5.83;4.87;;;;;;;9.90;100.00;99278.84;4988542;28;20628;-80
2023/03/20 02:27:08;;;;;;;5.57;4.97;;;;;;;9.94;100.00;99280.34;5037826;28;20248;-80
2023/03/20 02:30:15;;;;;;;5.07;4.57;;;;;;;10.01;100.00;99279.06;5028505;28;20206;-81
2023/03/20 02:33:28;;;;;;;8.00;5.10;;;;;;;10.06;100.00;99274.34;5022818;28;20229;-81
2023/03/20 02:36:51;;;;;;;7.30;5.17;;;;;;;9.92;100.00;99269.88;5054824;28;20193;-81
2023/03/20 02:39:31;;;;;;;7.00;6.00;;;;;;;9.88;100.00;99271.00;5053599;28;20189;-80
2023/03/20 02:42:08;;;;;;;6.97;6.23;;;;;;;9.93;100.00;99266.28;5010410;28;20205;-80
2023/03/20 02:44:44;;;;;;;7.77;6.17;;;;;;;9.94;100.00;99278.59;5010091;28;20270;-80
2023/03/20 02:47:20;;;;;;;8.00;6.67;;;;;;;9.97;100.00;99291.63;5010062;28;20194;-81
2023/03/20 02:49:55;;;;;;;7.70;6.87;;;;;;;9.93;100.00;99289.22;5014567;28;20260;-81
2023/03/20 02:52:33;;;;;;;7.07;6.33;;;;;;;9.95;100.00;99292.66;5006220;28;20229;-81
2023/03/20 02:55:17;;;;;;;7.40;6.30;;;;;;;10.03;100.00;99293.03;5011704;28;20202;-81
2023/03/20 02:57:57;;;;;;;7.50;6.80;;;;;;;10.07;100.00;99289.28;5009885;28;20194;-81
2023/03/20 03:00:29;;;;;;;6.83;6.00;;;;;;;10.12;100.00;99289.00;5035153;28;20296;-80
2023/03/20 03:03:06;;;;;;;10.07;7.17;;;;;;;10.16;100.00;99298.47;5054056;28;20197;-81
2023/03/20 03:05:39;;;;;;;8.17;6.70;;;;;;;10.25;100.00;99304.09;5053851;28;20195;-80
2023/03/20 03:08:12;;;;;;;7.63;6.67;;;;;;;10.27;100.00;99298.69;5052230;28;20197;-80
2023/03/20 03:10:49;;;;;;;8.23;6.70;;;;;;;10.16;100.00;99303.75;5045289;28;20242;-81
2023/03/20 03:13:22;;;;;;;7.30;6.60;;;;;;;10.16;100.00;99298.47;5049569;28;20223;-80
2023/03/20 03:15:55;;;;;;;7.00;6.30;;;;;;;10.08;100.00;99298.91;5006612;28;20199;-81
2023/03/20 03:18:27;;;;;;;8.23;6.77;;;;;;;10.25;100.00;99296.16;5009671;28;20202;-80
2023/03/20 03:20:58;;;;;;;6.93;5.73;;;;;;;10.18;100.00;99304.50;5012211;28;20191;-80
2023/03/20 03:23:29;;;;;;;6.00;5.40;;;;;;;10.19;100.00;99296.47;5009245;28;20199;-80
2023/03/20 03:26:05;;;;;;;8.30;6.50;;;;;;;10.12;100.00;99296.94;5007442;28;20202;-80
2023/03/20 03:28:38;;;;;;;6.40;5.53;;;;;;;10.11;100.00;99292.59;5009145;28;20198;-80
2023/03/20 03:31:11;;;;;;;6.10;5.50;;;;;;;10.12;100.00;99286.34;4952779;28;20259;-81
2023/03/20 03:33:42;;;;;;;5.37;4.90;;;;;;;10.23;100.00;99286.56;4995019;28;20304;-81
2023/03/20 03:36:22;;;;;;;6.93;6.23;;;;;;;10.33;100.00;99285.09;5023132;28;20224;-80
2023/03/20 03:38:56;;;;;;;7.53;5.50;;;;;;;10.20;100.00;99277.00;5024410;28;20196;-81
2023/03/20 03:41:33;;;;;;;6.67;6.07;;;;;;;10.27;100.00;99286.31;5026328;28;20806;-80
2023/03/20 03:44:08;;;;;;;6.17;5.33;;;;;;;10.29;100.00;99284.41;5026542;28;20197;-81
2023/03/20 03:46:42;;;;;;;6.77;5.50;;;;;;;10.21;100.00;99291.94;5026204;28;20678;-80
2023/03/20 03:49:16;;;;;;;6.30;5.30;;;;;;;10.20;100.00;99303.47;5023331;28;20212;-81
2023/03/20 03:51:47;;;;;;;6.07;5.13;;;;;;;10.23;100.00;99307.75;4972752;28;20243;-81
2023/03/20 03:54:19;;;;;;;7.30;5.60;;;;;;;10.10;100.00;99299.66;4967569;28;20219;-80
2023/03/20 03:56:51;;;;;;;7.33;5.80;;;;;;;10.18;100.00;99308.00;4969857;28;20218;-81
2023/03/20 03:59:24;;;;;;;7.20;6.40;;;;;;;10.15;100.00;99310.00;4974230;28;20216;-81
2023/03/20 04:01:56;;;;;;;8.60;6.77;;;;;;;10.17;100.00;99316.03;4970712;28;20192;-81
2023/03/20 04:04:27;;;;;;;9.13;7.17;;;;;;;10.15;100.00;99323.22;4971127;28;20207;-81
2023/03/20 04:06:56;;;;;;;8.17;7.33;;;;;;;10.12;100.00;99318.09;4968051;28;20268;-82
2023/03/20 04:09:24;;;;;;;9.57;7.57;;;;;;;10.36;100.00;99327.25;4966880;28;20204;-81
2023/03/20 04:11:55;;;;;;;11.30;7.77;;;;;;;10.38;100.00;99319.22;4976005;28;20299;-81
2023/03/20 04:14:23;;;;;;;15.67;10.90;;;;;;;10.29;100.00;99331.22;4967813;28;20227;-80
2023/03/20 04:16:52;;;;;;;18.77;11.73;;;;;;;10.36;100.00;99324.63;4973736;28;20205;-81
2023/03/20 04:19:20;;;;;;;17.10;12.17;;;;;;;10.49;100.00;99324.72;4972812;28;20200;-80
2023/03/20 04:21:49;;;;;;;18.03;12.43;;;;;;;10.46;100.00;99333.72;4972707;28;20694;-81
2023/03/20 04:24:18;;;;;;;29.17;17.47;;;;;;;10.27;100.00;99336.63;4949157;29;20211;-81
2023/03/20 04:26:46;;;;;;;30.70;17.57;;;;;;;10.30;100.00;99343.50;4946818;29;20268;-81
2023/03/20 04:29:18;;;;;;;29.73;18.73;;;;;;;10.18;100.00;99345.06;4982024;28;20190;-80
2023/03/20 04:31:46;;;;;;;29.73;18.57;;;;;;;10.07;100.00;99354.59;5026310;28;20231;-81
2023/03/20 04:34:15;;;;;;;31.93;19.30;;;;;;;9.90;100.00;99368.78;5039276;28;20217;-80
2023/03/20 04:36:44;;;;;;;30.77;18.63;;;;;;;10.02;100.00;99363.63;4967893;28;20203;-81
2023/03/20 04:39:14;;;;;;;42.70;22.00;;;;;;;9.95;100.00;99375.53;4961034;28;20246;-81
2023/03/20 04:41:43;;;;;;;42.80;22.87;;;;;;;10.10;100.00;99381.72;4972378;28;20191;-80
2023/03/20 04:44:11;;;;;;;40.87;22.77;;;;;;;10.15;100.00;99379.66;4988445;28;20203;-80
2023/03/20 04:46:43;;;;;;;40.57;23.00;;;;;;;10.11;100.00;99382.56;4984545;28;20203;-80
2023/03/20 04:49:11;;;;;;;41.80;22.47;;;;;;;10.06;100.00;99388.16;4988274;28;20281;-81
2023/03/20 04:51:40;;;;;;;44.27;23.33;;;;;;;9.99;100.00;99382.34;4990099;28;20191;-80
2023/03/20 04:54:08;;;;;;;40.90;22.93;;;;;;;10.09;100.00;99387.97;4997569;28;20225;-80
2023/03/20 04:56:37;;;;;;;42.43;22.77;;;;;;;10.08;100.00;99388.06;5049640;28;20640;-80
2023/03/20 04:59:05;;;;;;;45.37;23.53;;;;;;;10.04;100.00;99387.38;5014910;28;20211;-81
2023/03/20 05:01:34;;;;;;;49.50;24.77;;;;;;;10.01;100.00;99383.09;5042676;28;20189;-80
2023/03/20 05:04:07;;;;;;;49.03;25.03;;;;;;;10.01;100.00;99375.16;5053345;28;20204;-81
2023/03/20 05:06:36;;;;;;;52.30;24.40;;;;;;;9.95;100.00;99372.91;5017815;28;20212;-81
2023/03/20 05:09:05;;;;;;;50.37;24.90;;;;;;;9.92;100.00;99374.84;5016787;28;20208;-81
2023/03/20 05:11:34;;;;;;;44.90;23.10;;;;;;;9.81;100.00;99366.69;5055941;28;20193;-80
2023/03/20 05:14:03;;;;;;;50.00;24.23;;;;;;;9.69;100.00;99361.16;5054745;28;20303;-80
2023/03/20 05:16:32;;;;;;;53.23;24.20;;;;;;;9.74;100.00;99363.53;5048838;28;20213;-81
2023/03/20 05:19:00;;;;;;;55.83;24.67;;;;;;;9.76;100.00;99361.66;5045398;28;20300;-80
2023/03/20 05:21:33;;;;;;;55.40;24.43;;;;;;;9.65;100.00;99361.41;5050818;28;20255;-80
2023/03/20 05:24:03;;;;;;;56.33;25.77;;;;;;;9.53;100.00;99372.69;5049981;28;20197;-80
2023/03/20 05:26:32;;;;;;;52.17;23.77;;;;;;;9.43;100.00;99367.06;5056027;28;20193;-80
2023/03/20 05:29:00;;;;;;;49.40;23.97;;;;;;;9.30;100.00;99363.41;5054786;28;20190;-80
2023/03/20 05:31:29;;;;;;;51.20;22.70;;;;;;;9.24;100.00;99369.00;4951708;29;20203;-80
2023/03/20 05:34:00;;;;;;;53.37;23.50;;;;;;;9.28;100.00;99371.44;4950793;29;20231;-80
2023/03/20 05:36:28;;;;;;;47.03;23.17;;;;;;;9.23;100.00;99378.75;4951304;29;20200;-80
2023/03/20 05:38:58;;;;;;;52.40;22.43;;;;;;;9.36;100.00;99368.31;4945621;29;20218;-80
2023/03/20 05:41:27;;;;;;;45.37;22.57;;;;;;;9.04;100.00;99367.47;4951768;29;20208;-80
2023/03/20 05:43:57;;;;;;;44.97;21.47;;;;;;;9.25;100.00;99361.00;4955525;29;20227;-80
2023/03/20 05:46:28;;;;;;;45.43;21.87;;;;;;;9.30;100.00;99356.31;4920477;29;20212;-80
2023/03/20 05:48:56;;;;;;;41.73;21.37;;;;;;;9.12;100.00;99350.25;4964637;28;20670;-80
2023/03/20 05:51:25;;;;;;;43.70;21.40;;;;;;;9.25;100.00;99349.56;5051072;28;20250;-80
2023/03/20 05:53:54;;;;;;;40.83;20.63;;;;;;;9.32;100.00;99343.88;5048726;28;20217;-80
2023/03/20 05:56:23;;;;;;;38.73;19.83;;;;;;;9.48;100.00;99351.81;5055112;28;20215;-80
2023/03/20 05:58:53;;;;;;;38.70;20.87;;;;;;;9.44;100.00;99361.69;5055601;28;20280;-80
2023/03/20 06:01:22;;;;;;;36.27;19.93;;;;;;;9.57;100.00;99353.94;5049491;28;20316;-80
2023/03/20 06:03:50;;;;;;;41.90;20.77;;;;;;;9.48;100.00;99351.81;5053499;28;20193;-80
2023/03/20 06:06:19;;;;;;;41.27;20.83;;;;;;;9.43;100.00;99370.56;5050069;28;20211;-80
2023/03/20 06:08:47;;;;;;;44.17;21.40;;;;;;;9.43;100.00;99370.56;5046687;28;20205;-80
2023/03/20 06:11:15;;;;;;;40.83;20.37;;;;;;;9.51;100.00;99366.63;5051537;28;20193;-79
2023/03/20 06:13:45;;;;;;;44.53;20.63;;;;;;;9.50;100.00;99371.06;5047960;28;20275;-79
2023/03/20 06:16:14;;;;;;;45.33;20.60;;;;;;;9.31;100.00;99373.88;5055255;28;20189;-80
2023/03/20 06:18:43;;;;;;;40.03;20.83;;;;;;;9.38;100.00;99377.91;5055706;28;20201;-81
2023/03/20 06:21:11;;;;;;;43.17;20.70;;;;;;;9.40;100.00;99381.31;5051881;28;20193;-79
2023/03/20 06:23:41;;;;;;;45.40;20.97;;;;;;;9.49;100.00;99377.31;5052871;28;20193;-79
2023/03/20 06:26:10;;;;;;;41.17;20.23;;;;;;;9.42;100.00;99383.84;5054743;28;20204;-80
2023/03/20 06:28:39;;;;;;;36.83;19.93;;;;;;;9.25;100.00;99383.94;5049421;28;20197;-80
2023/03/20 06:31:09;;;;;;;36.97;19.87;;;;;;;9.20;100.00;99375.41;5051124;28;20193;-80
2023/03/20 06:33:39;;;;;;;38.73;20.53;;;;;;;9.11;100.00;99367.06;5048153;28;20232;-80
2023/03/20 06:36:10;;;;;;;38.30;19.77;;;;;;;9.25;100.00;99362.78;5047959;28;20205;-79
2023/03/20 06:38:38;;;;;;;37.70;19.17;;;;;;;9.36;100.00;99360.41;5047501;28;20193;-80
2023/03/20 06:41:07;;;;;;;37.73;19.93;;;;;;;9.30;100.00;99358.97;5050919;28;20288;-80
2023/03/20 06:43:38;;;;;;;36.30;19.93;;;;;;;9.29;100.00;99351.97;5054263;28;20205;-80
2023/03/20 06:46:09;;;;;;;36.80;19.50;;;;;;;9.43;100.00;99361.78;5051933;28;20288;-80
2023/03/20 06:48:39;;;;;;;36.57;20.00;;;;;;;9.54;100.00;99355.88;5032305;28;20205;-80
2023/03/20 06:51:08;;;;;;;35.23;18.97;;;;;;;9.56;100.00;99361.94;5028303;28;20213;-80
2023/03/20 06:53:37;;;;;;;31.93;19.23;;;;;;;9.56;100.00;99360.16;5029627;28;20256;-80
2023/03/20 06:56:06;;;;;;;31.40;17.87;;;;;;;9.58;100.00;99368.84;5028032;28;20220;-80
2023/03/20 06:58:35;;;;;;;32.83;18.70;;;;;;;9.65;100.00;99371.97;5027277;28;20200;-80
2023/03/20 07:01:08;;;;;;;34.37;19.30;;;;;;;9.69;100.00;99384.09;5025060;28;20202;-80
2023/03/20 07:03:38;;;;;;;33.70;18.93;;;;;;;9.74;100.00;99382.88;5025073;28;20197;-80
2023/03/20 07:06:07;;;;;;;32.57;17.43;;;;;;;9.78;100.00;99388.88;5034097;28;20204;-80
2023/03/20 07:08:36;;;;;;;33.13;18.20;;;;;;;9.76;100.00;99393.41;5047845;28;20204;-80
2023/03/20 07:11:05;;;;;;;34.10;18.17;;;;;;;9.78;100.00;99390.66;5045817;28;20195;-80
2023/03/20 07:13:33;;;;;;;33.43;19.07;;;;;;;9.62;100.00;99394.16;5049903;28;20250;-80
2023/03/20 07:16:03;;;;;;;30.03;18.13;;;;;;;9.72;100.00;99395.34;5046156;28;20221;-80
2023/03/20 07:18:32;;;;;;;32.63;18.73;;;;;;;9.82;100.00;99400.13;5050331;28;20203;-80
2023/03/20 07:21:06;;;;;;;32.63;19.07;;;;;;;9.81;100.00;99398.41;5054526;28;20189;-80
2023/03/20 07:23:35;;;;;;;33.67;19.90;;;;;;;9.88;100.00;99395.34;5019074;28;20196;-80
2023/03/20 07:26:05;;;;;;;32.60;19.73;;;;;;;9.79;100.00;99398.50;5051782;28;20200;-81
2023/03/20 07:28:33;;;;;;;32.07;20.07;;;;;;;9.89;100.00;99398.84;5047969;28;20247;-80
2023/03/20 07:31:03;;;;;;;31.87;20.23;;;;;;;9.91;100.00;99395.16;5048908;28;20270;-80
2023/03/20 07:33:32;;;;;;;35.63;19.73;;;;;;;9.91;100.00;99392.50;5007574;28;20237;-80
2023/03/20 07:36:01;;;;;;;36.50;20.60;;;;;;;9.87;100.00;99387.50;5005219;28;20709;-80
2023/03/20 07:38:31;;;;;;;35.23;20.50;;;;;;;9.84;100.00;99385.00;5006730;28;20198;-80
2023/03/20 07:40:59;;;;;;;34.60;21.13;;;;;;;9.92;100.00;99382.78;5006730;28;20206;-80
2023/03/20 07:43:28;;;;;;;36.27;20.83;;;;;;;10.07;100.00;99386.34;5004856;28;20198;-80
2023/03/20 07:45:56;;;;;;;33.47;20.20;;;;;;;10.03;100.00;99385.66;5008083;28;20301;-80
2023/03/20 07:48:25;;;;;;;37.20;21.20;;;;;;;10.01;100.00;99382.25;5006701;28;20205;-80
2023/03/20 07:50:53;;;;;;;35.77;22.03;;;;;;;10.09;100.00;99387.09;5007705;28;20201;-80
2023/03/20 07:53:21;;;;;;;37.97;21.57;;;;;;;10.11;100.00;99371.97;5023432;28;20209;-80
2023/03/20 07:55:51;;;;;;;34.83;20.77;;;;;;;10.12;100.00;99382.47;5029096;28;20268;-80
2023/03/20 07:58:20;;;;;;;38.20;22.07;;;;;;;10.19;100.00;99381.19;5024241;28;20198;-80
2023/03/20 08:00:49;;;;;;;38.23;23.17;;;;;;;10.02;100.00;99383.94;5025191;28;20268;-80
2023/03/20 08:03:17;;;;;;;35.07;20.47;;;;;;;10.06;100.00;99388.16;5026838;28;20205;-80
2023/03/20 08:05:46;;;;;;;37.80;21.67;;;;;;;10.30;100.00;99385.88;5028707;28;20198;-80
2023/03/20 08:08:15;;;;;;;33.70;19.83;;;;;;;10.37;100.00;99383.72;5029874;28;20260;-80
2023/03/20 08:10:43;;;;;;;34.87;20.67;;;;;;;10.47;100.00;99382.22;5031869;28;20193;-81
2023/03/20 08:13:16;;;;;;;35.67;20.13;;;;;;;10.39;100.00;99395.06;5032808;28;20279;-80
2023/03/20 08:15:44;;;;;;;35.73;21.57;;;;;;;10.08;100.00;99403.94;5031353;28;20225;-80
2023/03/20 08:18:13;;;;;;;39.73;22.37;;;;;;;9.91;100.00;99403.09;5031266;28;20339;-81
2023/03/20 08:20:41;;;;;;;41.27;23.97;;;;;;;10.04;100.00;99406.75;5028296;28;20198;-80
2023/03/20 08:23:10;;;;;;;38.77;22.80;;;;;;;9.96;100.00;99403.69;5028761;28;20198;-80
2023/03/20 08:25:38;;;;;;;37.23;21.47;;;;;;;10.07;100.00;99411.00;5032798;28;20196;-80
2023/03/20 08:28:07;;;;;;;40.73;22.37;;;;;;;10.10;100.00;99413.47;5030422;28;20225;-80
2023/03/20 08:30:37;;;;;;;37.40;21.90;;;;;;;9.89;100.00;99412.06;5025288;28;20255;-80
2023/03/20 08:33:06;;;;;;;42.93;23.07;;;;;;;9.90;100.00;99405.84;5061622;28;20220;-80
2023/03/20 08:35:34;;;;;;;41.67;23.50;;;;;;;10.12;100.00;99414.22;5070723;28;20260;-80
2023/03/20 08:38:03;;;;;;;43.47;22.13;;;;;;;10.35;100.00;99418.25;4952015;28;20199;-80
2023/03/20 08:40:32;;;;;;;42.93;24.93;;;;;;;10.12;100.00;99421.31;4971018;28;20223;-80
2023/03/20 08:43:02;;;;;;;39.27;23.43;;;;;;;9.99;100.00;99429.13;4965485;28;20218;-80
2023/03/20 08:45:30;;;;;;;38.97;23.63;;;;;;;10.15;100.00;99429.09;4965189;28;20244;-80
2023/03/20 08:48:02;;;;;;;36.27;22.30;;;;;;;10.38;100.00;99417.19;4958542;28;20333;-80
2023/03/20 08:50:32;;;;;;;37.03;22.70;;;;;;;10.36;100.00;99414.66;4966705;28;20212;-81
2023/03/20 08:53:00;;;;;;;38.33;22.13;;;;;;;10.45;100.00;99422.03;4963481;28;20202;-80
2023/03/20 08:55:29;;;;;;;34.03;21.30;;;;;;;10.43;100.00;99426.59;4982047;28;20216;-79
2023/03/20 08:57:58;;;;;;;37.97;22.87;;;;;;;9.95;100.00;99424.97;5065763;28;20200;-80
2023/03/20 09:00:27;;;;;;;39.10;22.27;;;;;;;10.12;100.00;99427.47;5067993;28;20246;-79
2023/03/20 09:02:55;;;;;;;33.07;21.33;;;;;;;10.18;100.00;99420.97;5068495;28;20314;-80
2023/03/20 09:05:26;;;;;;;30.33;20.60;;;;;;;10.11;100.00;99424.91;5066077;28;20192;-80
2023/03/20 09:07:54;;;;;;;33.70;20.57;;;;;;;10.17;100.00;99421.94;5069555;28;20192;-79
2023/03/20 09:10:22;;;;;;;33.53;21.67;;;;;;;10.11;100.00;99427.56;5067586;28;20192;-81
2023/03/20 09:12:51;;;;;;;32.20;19.67;;;;;;;10.48;100.00;99421.84;5062390;28;20258;-79
2023/03/20 09:15:19;;;;;;;33.03;19.07;;;;;;;10.49;100.00;99423.56;5062957;28;20216;-80
2023/03/20 09:17:48;;;;;;;30.47;19.63;;;;;;;10.66;100.00;99421.69;5060800;28;20207;-80
2023/03/20 09:20:16;;;;;;;36.83;21.07;;;;;;;11.02;100.00;99415.97;5068902;28;20321;-80
2023/03/20 09:22:46;;;;;;;30.60;19.77;;;;;;;10.85;100.00;99411.69;5019187;28;20200;-80
2023/03/20 09:25:15;;;;;;;31.43;19.70;;;;;;;10.93;100.00;99425.34;5065883;28;20200;-80
2023/03/20 09:27:45;;;;;;;30.03;21.30;;;;;;;10.90;100.00;99420.19;5065877;28;20212;-80
2023/03/20 09:30:14;;;;;;;31.47;18.00;;;;;;;11.14;100.00;99412.56;5069002;28;20189;-80
2023/03/20 09:32:44;;;;;;;29.60;17.30;;;;;;;11.12;100.00;99414.47;5066249;28;20274;-81
2023/03/20 09:35:15;;;;;;;29.13;18.87;;;;;;;11.40;100.00;99414.44;5059147;28;20674;-80
2023/03/20 09:37:46;;;;;;;28.70;17.17;;;;;;;11.54;100.00;99416.19;4983731;28;20195;-80
2023/03/20 09:40:24;;;;;;;23.97;16.17;;;;;;;11.56;100.00;99408.97;4987136;28;20678;-80
2023/03/20 09:43:02;;;;;;;24.30;16.20;;;;;;;11.49;100.00;99418.31;4983875;28;20203;-81
2023/03/20 09:45:45;;;;;;;29.23;18.37;;;;;;;11.30;100.00;99409.81;4926703;29;20264;-80
2023/03/20 09:48:19;;;;;;;26.60;17.87;;;;;;;11.46;100.00;99414.03;4929353;29;20204;-81
2023/03/20 09:50:57;;;;;;;28.83;15.17;;;;;;;11.78;100.00;99423.53;4931975;29;20235;-81
2023/03/20 09:53:33;;;;;;;22.20;13.63;;;;;;;11.95;100.00;99416.19;4905959;29;20200;-81
2023/03/20 09:56:01;;;;;;;20.63;14.30;;;;;;;11.52;100.00;99411.94;4894849;29;20225;-81
2023/03/20 09:58:33;;;;;;;21.07;14.00;;;;;;;11.85;100.00;99416.91;4925409;29;20197;-81
2023/03/20 10:01:05;;;;;;;21.13;13.60;;;;;;;11.71;100.00;99412.47;4934555;29;20203;-80
2023/03/20 10:03:52;;;;;;;19.93;12.77;;;;;;;11.84;100.00;99421.34;4952071;28;20791;-80
2023/03/20 10:06:22;;;;;;;19.50;13.80;;;;;;;11.98;100.00;99408.06;4975669;28;20383;-80
2023/03/20 10:08:54;;;;;;;21.10;14.10;;;;;;;12.28;100.00;99426.41;4987652;28;20210;-80
2023/03/20 10:11:50;;;;;;;22.63;13.73;;;;;;;12.28;100.00;99412.28;4990238;28;20201;-80
2023/03/20 10:14:28;;;;;;;22.23;14.57;;;;;;;11.40;100.00;99406.47;5033140;28;20350;-80
2023/03/20 10:17:14;;;;;;;20.13;13.63;;;;;;;11.46;100.00;99419.31;5045569;28;20216;-80
2023/03/20 10:19:46;;;;;;;21.97;13.13;;;;;;;11.24;100.00;99434.91;5059869;28;20201;-80
2023/03/20 10:22:24;;;;;;;19.93;12.93;;;;;;;11.32;100.00;99422.00;5072490;28;20200;-80
2023/03/20 10:25:06;;;;;;;20.17;12.67;;;;;;;11.60;100.00;99423.78;5034965;28;20211;-80
2023/03/20 10:27:40;;;;;;;20.87;12.50;;;;;;;11.62;100.00;99421.88;5075351;28;20192;-80
2023/03/20 10:30:27;;;;;;;19.80;12.87;;;;;;;11.70;100.00;99419.56;5066970;28;20203;-80
2023/03/20 10:33:07;;;;;;;17.90;12.90;;;;;;;11.66;100.00;99414.53;5069724;28;20226;-80
2023/03/20 10:35:42;;;;;;;18.87;11.60;;;;;;;11.74;100.00;99415.75;5072303;28;20196;-80
2023/03/20 10:38:24;;;;;;;17.10;11.67;;;;;;;11.82;100.00;99409.16;5068527;28;20206;-80
2023/03/20 10:40:59;;;;;;;18.43;11.47;;;;;;;11.70;100.00;99416.91;5067810;28;20257;-80
2023/03/20 10:43:31;;;;;;;16.00;11.30;;;;;;;11.57;100.00;99417.78;5070404;28;20265;-80
2023/03/20 10:46:07;;;;;;;17.80;12.57;;;;;;;11.49;100.00;99420.97;5068330;28;20218;-80
2023/03/20 10:48:39;;;;;;;17.17;11.27;;;;;;;11.54;100.00;99413.53;5072512;28;20195;-80
2023/03/20 10:51:15;;;;;;;17.20;11.83;;;;;;;11.60;100.00;99421.13;5074333;28;20200;-79
2023/03/20 10:53:49;;;;;;;18.97;11.37;;;;;;;11.57;100.00;99407.19;5074221;28;20195;-81
2023/03/20 10:56:30;;;;;;;18.67;12.57;;;;;;;11.31;100.00;99412.34;5037661;28;20253;-81
2023/03/20 10:59:06;;;;;;;19.17;11.90;;;;;;;11.64;100.00;99414.66;5071284;28;20203;-80
2023/03/20 11:01:35;;;;;;;18.17;12.27;;;;;;;11.51;100.00;99411.09;5063675;28;20200;-80
2023/03/20 11:04:07;;;;;;;19.63;11.77;;;;;;;11.66;100.00;99415.41;4992412;28;20199;-80
2023/03/20 11:06:48;;;;;;;18.53;11.60;;;;;;;11.54;100.00;99404.72;4991982;28;20195;-80
2023/03/20 11:09:23;;;;;;;17.83;13.13;;;;;;;11.52;100.00;99394.22;4990293;28;20264;-80
2023/03/20 11:11:59;;;;;;;19.03;12.33;;;;;;;11.35;100.00;99397.09;4987221;28;20294;-81
2023/03/20 11:14:39;;;;;;;19.43;14.30;;;;;;;11.35;100.00;99399.75;4985653;28;20209;-80
2023/03/20 11:17:11;;;;;;;15.87;11.37;;;;;;;11.68;100.00;99394.09;4985792;28;20218;-81
2023/03/20 11:19:43;;;;;;;17.07;12.27;;;;;;;11.67;100.00;99395.88;4992499;28;20213;-81
2023/03/20 11:22:25;;;;;;;15.80;11.60;;;;;;;11.86;100.00;99387.59;5025435;28;20192;-80
2023/03/20 11:25:00;;;;;;;18.33;11.30;;;;;;;11.83;100.00;99382.50;5067563;28;20193;-80
2023/03/20 11:27:33;;;;;;;19.10;11.37;;;;;;;11.89;100.00;99386.56;5065635;28;20195;-80
2023/03/20 11:30:06;;;;;;;18.73;12.20;;;;;;;11.76;100.00;99382.00;5073517;28;20200;-81
2023/03/20 11:32:40;;;;;;;17.10;11.40;;;;;;;11.91;100.00;99374.88;5072326;28;20273;-80
2023/03/20 11:35:21;;;;;;;17.30;11.70;;;;;;;11.84;100.00;99372.72;5066787;28;20184;-80
2023/03/20 11:37:53;;;;;;;19.07;12.47;;;;;;;11.83;100.00;99371.03;5069449;28;20238;-81
2023/03/20 11:40:24;;;;;;;16.80;11.30;;;;;;;12.17;100.00;99365.19;5070031;28;20200;-80